createdAt,value
2019-02-27T00:00:15.926Z,4.90
2019-02-27T00:02:48.945Z,5.00
2019-02-27T00:05:19.112Z,5.00
2019-02-27T00:07:51.832Z,5.00
2019-02-27T00:10:21.310Z,5.10
2019-02-27T00:12:52.454Z,5.10
2019-02-27T00:15:22.737Z,5.10
2019-02-27T00:17:52.908Z,5.20
2019-02-27T00:20:23.050Z,5.20
2019-02-27T00:22:53.115Z,5.20
2019-02-27T00:25:23.193Z,5.20
2019-02-27T00:27:55.459Z,5.20
2019-02-27T00:30:27.101Z,5.20
2019-02-27T00:32:57.109Z,5.30
2019-02-27T00:35:27.623Z,5.30
2019-02-27T00:37:58.787Z,5.30
2019-02-27T00:40:29.120Z,5.30
2019-02-27T00:42:59.157Z,5.40
2019-02-27T00:45:29.103Z,5.50
2019-02-27T00:47:59.615Z,5.50
2019-02-27T00:50:29.799Z,5.60
2019-02-27T00:52:59.732Z,5.60
2019-02-27T00:55:39.385Z,5.60
2019-02-27T00:58:15.400Z,5.60
2019-02-27T01:00:45.533Z,5.60
2019-02-27T01:03:15.670Z,5.60
2019-02-27T01:05:45.848Z,5.60
2019-02-27T01:08:15.957Z,5.60
2019-02-27T01:10:46.066Z,5.60
2019-02-27T01:13:16.036Z,5.50
2019-02-27T01:15:46.077Z,5.50
2019-02-27T01:18:16.230Z,5.60
2019-02-27T01:20:50.995Z,5.50
2019-02-27T01:23:20.892Z,5.40
2019-02-27T01:25:56.158Z,5.40
2019-02-27T01:28:25.221Z,5.40
2019-02-27T01:30:55.309Z,5.30
2019-02-27T01:33:25.194Z,5.20
2019-02-27T01:35:55.215Z,5.20
2019-02-27T01:38:26.594Z,5.20
2019-02-27T01:40:56.667Z,5.20
2019-02-27T01:43:29.591Z,5.10
2019-02-27T01:45:59.546Z,5.10
2019-02-27T01:48:31.001Z,4.90
2019-02-27T01:51:01.143Z,4.70
2019-02-27T01:53:32.496Z,4.40
2019-02-27T01:56:06.421Z,4.20
2019-02-27T01:58:36.493Z,4.10
2019-02-27T02:01:06.695Z,3.90
2019-02-27T02:03:40.183Z,3.80
2019-02-27T02:06:10.475Z,3.70
2019-02-27T02:08:47.969Z,3.60
2019-02-27T02:11:15.281Z,3.40
2019-02-27T02:13:54.359Z,3.40
2019-02-27T02:16:52.665Z,3.30
2019-02-27T02:20:02.162Z,3.20
2019-02-27T02:22:55.767Z,3.00
2019-02-27T02:25:50.697Z,2.90
2019-02-27T02:29:05.236Z,2.80
2019-02-27T02:32:08.402Z,2.70
2019-02-27T02:35:14.634Z,2.60
2019-02-27T02:37:58.753Z,2.50
2019-02-27T02:40:46.388Z,2.40
2019-02-27T02:43:30.667Z,2.40
2019-02-27T02:46:45.453Z,2.30
2019-02-27T02:49:45.909Z,2.30
2019-02-27T02:52:45.231Z,2.20
2019-02-27T02:55:52.129Z,2.20
2019-02-27T02:58:48.354Z,2.10
2019-02-27T03:01:28.957Z,2.10
2019-02-27T03:04:40.590Z,2.00
2019-02-27T03:07:49.829Z,2.00
2019-02-27T03:10:31.340Z,2.00
2019-02-27T03:13:55.158Z,1.90
2019-02-27T03:17:07.265Z,1.90
2019-02-27T03:20:16.769Z,1.80
2019-02-27T03:23:18.401Z,1.80
2019-02-27T03:26:24.111Z,1.80
2019-02-27T03:29:37.276Z,1.80
2019-02-27T03:32:24.229Z,1.80
2019-02-27T03:35:40.340Z,1.70
2019-02-27T03:38:28.610Z,1.70
2019-02-27T03:41:28.040Z,1.70
2019-02-27T03:44:26.510Z,1.60
2019-02-27T03:47:27.844Z,1.60
2019-02-27T03:50:22.645Z,1.60
2019-02-27T03:53:36.526Z,1.50
2019-02-27T03:56:34.821Z,1.50
2019-02-27T03:59:52.089Z,1.50
2019-02-27T04:03:05.130Z,1.50
2019-02-27T04:05:52.955Z,1.50
2019-02-27T04:08:44.881Z,1.50
2019-02-27T04:11:13.282Z,1.40
2019-02-27T04:13:43.418Z,1.40
2019-02-27T04:16:13.485Z,1.40
2019-02-27T04:18:44.264Z,1.30
2019-02-27T04:21:14.768Z,1.40
2019-02-27T04:23:49.022Z,1.30
2019-02-27T04:26:19.344Z,1.30
2019-02-27T04:28:49.216Z,1.30
2019-02-27T04:31:20.886Z,1.30
2019-02-27T04:33:51.239Z,1.20
2019-02-27T04:36:21.366Z,1.20
2019-02-27T04:38:51.414Z,1.20
2019-02-27T04:41:21.586Z,1.20
2019-02-27T04:43:51.629Z,1.20
2019-02-27T04:46:22.440Z,1.20
2019-02-27T04:48:53.132Z,1.20
2019-02-27T04:51:23.417Z,1.20
2019-02-27T04:53:54.984Z,1.20
2019-02-27T04:56:27.066Z,1.20
2019-02-27T04:59:05.313Z,1.10
2019-02-27T05:01:37.461Z,1.10
2019-02-27T05:04:07.476Z,1.10
2019-02-27T05:06:38.700Z,1.00
2019-02-27T05:09:09.653Z,1.00
2019-02-27T05:11:41.422Z,1.00
2019-02-27T05:14:14.604Z,1.00
2019-02-27T05:16:47.312Z,1.00
2019-02-27T05:19:26.683Z,1.00
2019-02-27T05:21:57.408Z,1.00
2019-02-27T05:24:28.484Z,1.00
2019-02-27T05:27:08.449Z,1.00
2019-02-27T05:29:45.671Z,1.00
2019-02-27T05:32:18.567Z,1.00
2019-02-27T05:34:50.851Z,0.90
2019-02-27T05:37:24.043Z,0.90
2019-02-27T05:39:54.083Z,0.90
2019-02-27T05:42:27.007Z,0.90
2019-02-27T05:44:57.274Z,0.90
2019-02-27T05:47:33.086Z,0.90
2019-02-27T05:50:05.746Z,0.90
2019-02-27T05:52:39.484Z,0.90
2019-02-27T05:55:15.330Z,0.80
2019-02-27T05:57:45.774Z,0.80
2019-02-27T06:00:32.973Z,0.80
2019-02-27T06:02:54.276Z,0.70
2019-02-27T06:05:24.344Z,0.70
2019-02-27T06:08:02.902Z,0.70
2019-02-27T06:10:33.224Z,0.70
2019-02-27T06:13:03.558Z,0.70
2019-02-27T06:15:35.109Z,0.70
2019-02-27T06:18:05.499Z,0.70
2019-02-27T06:20:38.971Z,0.60
2019-02-27T06:23:10.648Z,0.60
2019-02-27T06:25:49.888Z,0.60
2019-02-27T06:28:20.885Z,0.60
2019-02-27T06:30:52.572Z,0.60
2019-02-27T06:33:22.863Z,0.60
2019-02-27T06:35:53.478Z,0.60
2019-02-27T06:38:25.986Z,0.70
2019-02-27T06:41:01.769Z,0.70
2019-02-27T06:43:38.474Z,0.70
2019-02-27T06:46:11.472Z,0.70
2019-02-27T06:48:43.597Z,0.80
2019-02-27T06:51:25.491Z,0.80
2019-02-27T06:54:00.699Z,0.90
2019-02-27T06:56:44.238Z,1.00
2019-02-27T06:59:25.228Z,1.00
2019-02-27T07:01:57.445Z,1.10
2019-02-27T07:04:36.451Z,1.20
2019-02-27T07:07:32.691Z,1.30
2019-02-27T07:10:07.541Z,1.30
2019-02-27T07:12:38.436Z,1.40
2019-02-27T07:16:20.455Z,1.50
2019-02-27T07:19:01.849Z,1.50
2019-02-27T07:21:38.399Z,1.70
2019-02-27T07:24:20.260Z,1.80
2019-02-27T07:26:51.721Z,1.90
2019-02-27T07:29:27.332Z,1.90
2019-02-27T07:32:01.168Z,2.00
2019-02-27T07:34:38.088Z,2.00
2019-02-27T07:40:07.948Z,2.20
2019-02-27T07:42:50.719Z,2.30
2019-02-27T07:45:27.521Z,2.40
2019-02-27T07:50:49.199Z,2.50
2019-02-27T07:53:20.099Z,2.60
2019-02-27T07:55:50.714Z,2.70
2019-02-27T07:58:21.326Z,2.80
2019-02-27T08:00:51.740Z,2.80
2019-02-27T08:03:22.187Z,2.90
2019-02-27T08:05:59.916Z,2.90
2019-02-27T08:08:29.810Z,3.00
2019-02-27T08:11:07.339Z,3.10
2019-02-27T08:13:39.262Z,3.10
2019-02-27T08:16:13.034Z,3.20
2019-02-27T08:18:55.999Z,3.30
2019-02-27T08:21:39.389Z,3.40
2019-02-27T08:24:09.712Z,3.40
2019-02-27T08:26:40.377Z,3.50
2019-02-27T08:29:10.971Z,3.60
2019-02-27T08:31:51.331Z,3.60
2019-02-27T08:34:37.575Z,3.70
2019-02-27T08:37:09.770Z,3.80
2019-02-27T08:39:40.145Z,3.80
2019-02-27T08:42:10.386Z,3.90
2019-02-27T08:44:47.209Z,3.90
2019-02-27T08:47:17.580Z,4.00
2019-02-27T08:49:47.794Z,4.10
2019-02-27T08:52:44.406Z,4.20
2019-02-27T08:55:19.870Z,4.30
2019-02-27T08:57:46.493Z,4.30
2019-02-27T09:00:24.693Z,4.40
2019-02-27T09:03:19.674Z,4.50
2019-02-27T09:05:42.131Z,4.60
2019-02-27T09:08:12.649Z,4.70
2019-02-27T09:10:44.763Z,4.80
2019-02-27T09:13:15.067Z,4.90
2019-02-27T09:15:55.423Z,5.00
2019-02-27T09:18:25.345Z,5.20
2019-02-27T09:20:55.636Z,5.20
2019-02-27T09:23:30.897Z,5.30
2019-02-27T09:26:02.717Z,5.50
2019-02-27T09:28:35.415Z,5.60
2019-02-27T09:31:07.089Z,5.80
2019-02-27T09:33:40.147Z,5.80
2019-02-27T09:36:11.334Z,6.00
2019-02-27T09:38:45.108Z,6.10
2019-02-27T09:42:19.162Z,6.20
2019-02-27T09:44:48.321Z,6.30
2019-02-27T09:47:23.079Z,6.40
2019-02-27T09:53:12.778Z,6.60
2019-02-27T09:55:42.854Z,6.70
2019-02-27T09:58:13.237Z,6.90
2019-02-27T10:00:45.505Z,7.10
2019-02-27T10:03:19.780Z,7.30
2019-02-27T10:05:48.291Z,7.40
2019-02-27T10:08:18.541Z,7.70
2019-02-27T10:10:49.436Z,7.90
2019-02-27T10:13:20.271Z,8.00
2019-02-27T10:15:53.471Z,8.20
2019-02-27T10:18:23.570Z,8.40
2019-02-27T10:20:54.214Z,8.60
2019-02-27T10:23:32.894Z,8.70
2019-02-27T10:26:06.032Z,8.80
2019-02-27T10:28:39.608Z,8.90
2019-02-27T10:31:08.026Z,9.00
2019-02-27T10:33:44.134Z,9.10
2019-02-27T10:36:17.936Z,9.20
2019-02-27T10:38:48.213Z,9.40
2019-02-27T10:41:20.455Z,9.40
2019-02-27T10:43:56.652Z,9.60
2019-02-27T10:46:30.411Z,9.70
2019-02-27T10:49:00.910Z,9.90
2019-02-27T10:51:32.343Z,10.00
2019-02-27T10:54:05.428Z,10.00
2019-02-27T10:56:37.736Z,10.20
2019-02-27T10:59:10.695Z,10.20
2019-02-27T11:01:44.451Z,10.40
2019-02-27T11:04:15.345Z,10.40
2019-02-27T11:06:46.365Z,10.50
2019-02-27T11:09:28.235Z,10.50
2019-02-27T11:12:00.061Z,10.70
2019-02-27T11:14:32.049Z,10.80
2019-02-27T11:17:03.812Z,10.90
2019-02-27T11:19:35.075Z,11.00
2019-02-27T11:22:24.171Z,11.10
2019-02-27T11:24:57.323Z,11.20
2019-02-27T11:27:30.193Z,11.30
2019-02-27T11:30:03.052Z,11.40
2019-02-27T11:32:33.835Z,11.50
2019-02-27T11:35:04.628Z,11.60
2019-02-27T11:37:41.203Z,11.70
2019-02-27T11:40:15.634Z,11.70
2019-02-27T11:42:46.196Z,11.90
2019-02-27T11:45:21.157Z,12.00
2019-02-27T11:47:56.093Z,12.10
2019-02-27T11:50:23.306Z,12.20
2019-02-27T11:53:01.774Z,12.20
2019-02-27T11:55:30.242Z,12.40
2019-02-27T11:58:04.567Z,12.50
2019-02-27T12:00:33.363Z,12.50
2019-02-27T12:03:08.555Z,12.60
2019-02-27T12:05:36.477Z,12.80
2019-02-27T12:08:11.320Z,12.80
2019-02-27T12:10:42.084Z,12.90
2019-02-27T12:13:14.188Z,12.90
2019-02-27T12:15:45.267Z,13.00
2019-02-27T12:18:17.415Z,13.10
2019-02-27T12:20:53.230Z,13.10
2019-02-27T12:23:20.492Z,13.20
2019-02-27T12:25:50.556Z,13.20
2019-02-27T12:28:22.955Z,13.20
2019-02-27T12:30:52.830Z,13.30
2019-02-27T12:33:23.386Z,13.30
2019-02-27T12:35:54.413Z,13.30
2019-02-27T12:38:32.793Z,13.30
2019-02-27T12:40:59.094Z,13.40
2019-02-27T12:43:29.416Z,13.40
2019-02-27T12:46:01.034Z,13.40
2019-02-27T12:48:31.773Z,13.40
2019-02-27T12:51:03.786Z,13.50
2019-02-27T12:53:34.326Z,13.60
2019-02-27T12:56:07.835Z,13.60
2019-02-27T12:58:38.410Z,13.70
2019-02-27T13:01:09.114Z,13.70
2019-02-27T13:03:42.205Z,13.80
2019-02-27T13:06:11.888Z,13.80
2019-02-27T13:08:42.498Z,13.90
2019-02-27T13:11:12.787Z,13.90
2019-02-27T13:13:45.696Z,13.90
2019-02-27T13:16:18.263Z,14.00
2019-02-27T13:18:49.695Z,14.10
2019-02-27T13:21:22.229Z,14.20
2019-02-27T13:23:55.871Z,14.20
2019-02-27T13:26:27.312Z,14.20
2019-02-27T13:28:58.121Z,14.20
2019-02-27T13:31:32.932Z,14.30
2019-02-27T13:34:03.098Z,14.30
2019-02-27T13:36:36.022Z,14.40
2019-02-27T13:39:12.661Z,14.40
2019-02-27T13:41:46.691Z,14.50
2019-02-27T13:44:17.977Z,14.50
2019-02-27T13:46:49.671Z,14.50
2019-02-27T13:49:20.304Z,14.50
2019-02-27T13:51:53.691Z,14.50
2019-02-27T13:54:23.768Z,14.50
2019-02-27T13:56:55.529Z,14.50
2019-02-27T13:59:25.798Z,14.50
2019-02-27T14:01:55.926Z,14.50
2019-02-27T14:04:26.249Z,14.60
2019-02-27T14:06:56.855Z,14.50
2019-02-27T14:09:27.031Z,14.50
2019-02-27T14:11:58.687Z,14.50
2019-02-27T14:14:34.391Z,14.60
2019-02-27T14:17:07.703Z,14.60
2019-02-27T14:19:36.825Z,14.60
2019-02-27T14:22:08.111Z,14.60
2019-02-27T14:24:38.421Z,14.60
2019-02-27T14:27:11.921Z,14.60
2019-02-27T14:30:03.479Z,14.60
2019-02-27T14:32:55.303Z,14.60
2019-02-27T14:35:44.125Z,14.60
2019-02-27T14:38:33.349Z,14.70
2019-02-27T14:41:21.553Z,14.70
2019-02-27T14:44:10.106Z,14.70
2019-02-27T14:46:58.225Z,14.70
2019-02-27T14:49:46.302Z,14.80
2019-02-27T14:52:40.048Z,14.80
2019-02-27T14:55:28.734Z,14.70
2019-02-27T14:58:18.678Z,14.70
2019-02-27T15:01:08.424Z,14.70
2019-02-27T15:03:56.972Z,14.70
2019-02-27T15:06:45.018Z,14.80
2019-02-27T15:09:36.546Z,14.70
2019-02-27T15:12:25.344Z,14.70
2019-02-27T15:15:17.330Z,14.70
2019-02-27T15:18:05.914Z,14.80
2019-02-27T15:20:39.886Z,14.70
2019-02-27T15:23:28.337Z,14.70
2019-02-27T15:25:58.557Z,14.70
2019-02-27T15:28:33.458Z,14.70
2019-02-27T15:31:21.451Z,14.70
2019-02-27T15:33:53.960Z,14.70
2019-02-27T15:36:29.309Z,14.70
2019-02-27T15:38:56.722Z,14.70
2019-02-27T15:41:28.427Z,14.80
2019-02-27T15:44:01.585Z,14.80
2019-02-27T15:46:35.839Z,14.80
2019-02-27T15:49:05.865Z,14.80
2019-02-27T15:51:36.608Z,14.70
2019-02-27T15:54:07.832Z,14.70
2019-02-27T15:56:41.515Z,14.70
2019-02-27T15:59:11.953Z,14.60
2019-02-27T16:01:45.727Z,14.60
2019-02-27T16:04:17.579Z,14.60
2019-02-27T16:06:47.621Z,14.60
2019-02-27T16:09:20.911Z,14.60
2019-02-27T16:11:52.406Z,14.50
2019-02-27T16:14:22.881Z,14.50
2019-02-27T16:16:54.095Z,14.40
2019-02-27T16:19:25.104Z,14.40
2019-02-27T16:21:57.962Z,14.30
2019-02-27T16:24:32.659Z,14.30
2019-02-27T16:30:45.028Z,14.00
2019-02-27T16:33:15.786Z,13.90
2019-02-27T16:35:46.949Z,13.70
2019-02-27T16:38:24.647Z,13.60
2019-02-27T16:40:57.006Z,13.60
2019-02-27T16:43:35.581Z,13.60
2019-02-27T16:46:08.571Z,13.40
2019-02-27T16:48:45.341Z,13.30
2019-02-27T16:51:48.862Z,13.20
2019-02-27T16:54:20.851Z,13.00
2019-02-27T16:56:52.998Z,12.90
2019-02-27T16:59:28.748Z,12.90
2019-02-27T17:02:03.716Z,12.80
2019-02-27T17:07:26.604Z,12.60
2019-02-27T17:09:59.780Z,12.60
2019-02-27T17:12:32.089Z,12.40
2019-02-27T17:15:02.371Z,12.40
2019-02-27T17:17:36.755Z,12.30
2019-02-27T17:20:12.513Z,12.30
2019-02-27T17:23:04.483Z,12.30
2019-02-27T17:26:03.446Z,12.20
2019-02-27T17:31:21.596Z,11.90
2019-02-27T17:34:13.409Z,11.90
2019-02-27T17:36:37.817Z,11.80
2019-02-27T17:39:12.922Z,11.60
2019-02-27T17:42:00.193Z,11.50
2019-02-27T17:44:44.260Z,11.50
2019-02-27T17:47:18.405Z,11.50
2019-02-27T17:49:57.472Z,11.40
2019-02-27T17:52:27.991Z,11.40
2019-02-27T17:57:59.246Z,11.10
2019-02-27T18:03:28.949Z,11.00
2019-02-27T18:12:06.287Z,10.70
2019-02-27T18:14:30.533Z,10.70
2019-02-27T18:17:34.492Z,10.70
2019-02-27T18:22:45.998Z,11.00
2019-02-27T18:25:25.328Z,11.20
2019-02-27T18:28:12.049Z,11.20
2019-02-27T18:33:23.827Z,11.20
2019-02-27T18:36:01.509Z,11.20
2019-02-27T18:38:44.485Z,11.20
2019-02-27T18:41:16.833Z,11.10
2019-02-27T18:44:20.344Z,11.10
2019-02-27T18:46:45.485Z,11.10
2019-02-27T18:49:28.663Z,11.30
2019-02-27T18:54:43.832Z,11.40
2019-02-27T18:57:23.110Z,11.40
2019-02-27T18:59:51.941Z,11.50
2019-02-27T19:02:22.844Z,11.60
2019-02-27T19:05:00.789Z,11.80
2019-02-27T19:07:53.686Z,11.90
2019-02-27T19:10:23.706Z,11.90
2019-02-27T19:12:54.091Z,11.70
2019-02-27T19:15:26.203Z,11.70
2019-02-27T19:17:57.164Z,11.60
2019-02-27T19:20:32.835Z,11.70
2019-02-27T19:23:03.120Z,11.70
2019-02-27T19:25:39.001Z,11.80
2019-02-27T19:28:09.543Z,11.80
2019-02-27T19:30:44.369Z,11.80
2019-02-27T19:33:16.580Z,11.70
2019-02-27T19:35:55.847Z,11.70
2019-02-27T19:38:26.051Z,11.70
2019-02-27T19:41:01.261Z,11.60
2019-02-27T19:43:34.468Z,11.60
2019-02-27T19:46:09.865Z,11.40
2019-02-27T19:48:39.144Z,11.30
2019-02-27T19:51:09.730Z,11.20
2019-02-27T19:53:52.135Z,11.20
2019-02-27T19:56:28.040Z,11.10
2019-02-27T19:59:08.361Z,11.00
2019-02-27T20:01:49.045Z,11.00
2019-02-27T20:04:18.085Z,10.90
2019-02-27T20:06:49.089Z,10.80
2019-02-27T20:09:25.706Z,10.80
2019-02-27T20:11:56.060Z,10.70
2019-02-27T20:14:33.291Z,10.70
2019-02-27T20:17:12.799Z,10.50
2019-02-27T20:19:43.128Z,10.50
2019-02-27T20:22:15.422Z,10.40
2019-02-27T20:24:48.391Z,10.40
2019-02-27T20:27:19.175Z,10.40
2019-02-27T20:29:49.940Z,10.40
2019-02-27T20:32:20.430Z,10.40
2019-02-27T20:34:51.252Z,10.40
2019-02-27T20:37:21.976Z,10.40
2019-02-27T20:39:58.360Z,10.40
2019-02-27T20:42:24.940Z,10.40
2019-02-27T20:44:55.250Z,10.40
2019-02-27T20:47:27.349Z,10.40
2019-02-27T20:50:02.979Z,10.40
2019-02-27T20:52:54.427Z,10.40
2019-02-27T20:55:30.919Z,10.40
2019-02-27T20:58:05.081Z,10.40
2019-02-27T21:00:36.517Z,10.40
2019-02-27T21:03:26.791Z,10.40
2019-02-27T21:05:54.567Z,10.40
2019-02-27T21:08:28.761Z,10.30
2019-02-27T21:11:00.822Z,10.20
2019-02-27T21:13:31.335Z,10.10
2019-02-27T21:16:03.965Z,10.00
2019-02-27T21:18:35.363Z,9.90
2019-02-27T21:21:07.235Z,9.90
2019-02-27T21:23:37.556Z,9.80
2019-02-27T21:26:09.703Z,9.80
2019-02-27T21:28:40.844Z,9.70
2019-02-27T21:31:26.636Z,9.60
2019-02-27T21:33:55.989Z,9.50
2019-02-27T21:36:26.592Z,9.40
2019-02-27T21:38:57.357Z,9.40
2019-02-27T21:41:30.547Z,9.40
2019-02-27T21:44:02.722Z,9.40
2019-02-27T21:46:36.603Z,9.40
2019-02-27T21:49:38.165Z,9.30
2019-02-27T21:52:13.348Z,9.20
2019-02-27T21:57:44.830Z,9.10
2019-02-27T22:00:25.144Z,9.10
2019-02-27T22:03:05.740Z,9.10
2019-02-27T22:05:44.916Z,9.10
2019-02-27T22:08:15.553Z,9.00
2019-02-27T22:10:53.308Z,9.00
2019-02-27T22:13:29.567Z,9.00
2019-02-27T22:16:01.821Z,8.90
2019-02-27T22:18:38.511Z,8.80
2019-02-27T22:21:11.187Z,8.70
2019-02-27T22:23:46.023Z,8.70
2019-02-27T22:26:18.441Z,8.70
2019-02-27T22:28:54.434Z,8.80
2019-02-27T22:31:30.458Z,8.80
2019-02-27T22:33:57.845Z,8.80
2019-02-27T22:36:28.366Z,8.80
2019-02-27T22:39:05.222Z,8.70
2019-02-27T22:41:41.826Z,8.60
2019-02-27T22:44:15.426Z,8.60
2019-02-27T22:46:47.816Z,8.50
2019-02-27T22:49:51.019Z,8.40
2019-02-27T22:52:21.693Z,8.40
2019-02-27T22:54:52.163Z,8.30
2019-02-27T22:57:42.688Z,8.30
2019-02-27T23:01:18.044Z,8.30
2019-02-27T23:03:57.791Z,8.20
2019-02-27T23:06:28.800Z,8.20
2019-02-27T23:09:00.692Z,8.20
2019-02-27T23:11:34.115Z,8.10
2019-02-27T23:14:09.858Z,8.10
2019-02-27T23:16:40.523Z,8.10
2019-02-27T23:19:12.042Z,8.00
2019-02-27T23:21:44.072Z,8.00
2019-02-27T23:24:16.002Z,8.00
2019-02-27T23:26:54.364Z,8.00
2019-02-27T23:29:22.719Z,8.10
2019-02-27T23:31:54.836Z,8.10
2019-02-27T23:34:25.034Z,8.10
2019-02-27T23:37:00.204Z,8.10
2019-02-27T23:39:30.354Z,8.10
2019-02-27T23:42:00.720Z,8.10
2019-02-27T23:44:31.363Z,8.10
2019-02-27T23:47:01.466Z,8.00
2019-02-27T23:49:33.348Z,8.00
2019-02-27T23:52:16.088Z,7.90
2019-02-27T23:54:46.664Z,7.90
2019-02-27T23:57:24.502Z,7.80
2019-02-27T23:59:55.036Z,7.80
